sensor_id;sensor_type;location;lat;lon;timestamp;temperature;humidity
22838;DHT22;11585;51.450;-0.240;2022-08-03T00:01:09;23.90;99.90
22838;DHT22;11585;51.450;-0.240;2022-08-03T00:03:55;23.90;99.90
22838;DHT22;11585;51.450;-0.240;2022-08-03T00:06:21;23.80;99.90
22838;DHT22;11585;51.450;-0.240;2022-08-03T00:08:47;23.80;99.90
22838;DHT22;11585;51.450;-0.240;2022-08-03T00:11:12;23.80;99.90
22838;DHT22;11585;51.450;-0.240;2022-08-03T00:13:40;23.70;99.90
22838;DHT22;11585;51.450;-0.240;2022-08-03T00:16:06;23.70;99.90
22838;DHT22;11585;51.450;-0.240;2022-08-03T00:18:32;23.70;99.90
22838;DHT22;11585;51.450;-0.240;2022-08-03T00:20:57;23.70;99.90
22838;DHT22;11585;51.450;-0.240;2022-08-03T00:23:43;23.70;99.90
22838;DHT22;11585;51.450;-0.240;2022-08-03T00:26:12;23.70;99.90
22838;DHT22;11585;51.450;-0.240;2022-08-03T00:28:37;23.70;99.90
22838;DHT22;11585;51.450;-0.240;2022-08-03T00:31:03;23.70;99.90
22838;DHT22;11585;51.450;-0.240;2022-08-03T00:33:31;23.60;99.90
22838;DHT22;11585;51.450;-0.240;2022-08-03T00:35:57;23.70;99.90
22838;DHT22;11585;51.450;-0.240;2022-08-03T00:38:22;23.60;99.90
22838;DHT22;11585;51.450;-0.240;2022-08-03T00:40:51;23.60;99.90
22838;DHT22;11585;51.450;-0.240;2022-08-03T00:43:18;23.60;99.90
22838;DHT22;11585;51.450;-0.240;2022-08-03T00:45:43;23.60;99.90
22838;DHT22;11585;51.450;-0.240;2022-08-03T00:48:10;23.50;99.90
22838;DHT22;11585;51.450;-0.240;2022-08-03T00:50:41;23.50;99.90
22838;DHT22;11585;51.450;-0.240;2022-08-03T00:53:10;23.60;99.90
22838;DHT22;11585;51.450;-0.240;2022-08-03T00:55:40;23.50;99.90
22838;DHT22;11585;51.450;-0.240;2022-08-03T00:58:07;23.50;99.90
22838;DHT22;11585;51.450;-0.240;2022-08-03T01:00:37;23.50;99.90
22838;DHT22;11585;51.450;-0.240;2022-08-03T01:03:04;23.50;99.90
22838;DHT22;11585;51.450;-0.240;2022-08-03T01:13:56;23.40;99.90
22838;DHT22;11585;51.450;-0.240;2022-08-03T01:16:32;23.40;99.90
22838;DHT22;11585;51.450;-0.240;2022-08-03T01:28:21;23.30;99.90
22838;DHT22;11585;51.450;-0.240;2022-08-03T01:30:44;23.30;99.90
22838;DHT22;11585;51.450;-0.240;2022-08-03T01:36:35;23.30;99.90
22838;DHT22;11585;51.450;-0.240;2022-08-03T01:39:04;23.20;99.90
22838;DHT22;11585;51.450;-0.240;2022-08-03T01:41:38;23.00;99.90
22838;DHT22;11585;51.450;-0.240;2022-08-03T01:44:08;23.20;99.90
22838;DHT22;11585;51.450;-0.240;2022-08-03T01:46:36;23.20;99.90
22838;DHT22;11585;51.450;-0.240;2022-08-03T01:49:03;23.20;99.90
22838;DHT22;11585;51.450;-0.240;2022-08-03T01:51:31;23.20;99.90
22838;DHT22;11585;51.450;-0.240;2022-08-03T01:53:59;23.20;99.90
22838;DHT22;11585;51.450;-0.240;2022-08-03T01:56:27;23.10;99.90
22838;DHT22;11585;51.450;-0.240;2022-08-03T01:58:54;23.10;99.90
22838;DHT22;11585;51.450;-0.240;2022-08-03T02:01:22;23.10;99.90
22838;DHT22;11585;51.450;-0.240;2022-08-03T02:03:50;23.10;99.90
22838;DHT22;11585;51.450;-0.240;2022-08-03T02:06:19;23.10;99.90
22838;DHT22;11585;51.450;-0.240;2022-08-03T02:08:47;23.10;99.90
22838;DHT22;11585;51.450;-0.240;2022-08-03T02:11:13;22.70;99.90
22838;DHT22;11585;51.450;-0.240;2022-08-03T02:13:40;23.10;99.90
22838;DHT22;11585;51.450;-0.240;2022-08-03T02:16:07;23.00;99.90
22838;DHT22;11585;51.450;-0.240;2022-08-03T02:18:34;23.00;99.90
22838;DHT22;11585;51.450;-0.240;2022-08-03T02:21:03;23.00;99.90
22838;DHT22;11585;51.450;-0.240;2022-08-03T02:23:31;22.60;99.90
22838;DHT22;11585;51.450;-0.240;2022-08-03T02:26:01;23.00;99.90
22838;DHT22;11585;51.450;-0.240;2022-08-03T02:28:40;22.90;99.90
22838;DHT22;11585;51.450;-0.240;2022-08-03T02:31:13;22.90;99.90
22838;DHT22;11585;51.450;-0.240;2022-08-03T02:36:49;22.90;99.90
22838;DHT22;11585;51.450;-0.240;2022-08-03T02:39:20;22.80;99.90
22838;DHT22;11585;51.450;-0.240;2022-08-03T02:41:51;22.80;99.90
22838;DHT22;11585;51.450;-0.240;2022-08-03T02:47:12;22.80;99.90
22838;DHT22;11585;51.450;-0.240;2022-08-03T02:49:41;22.80;99.90
22838;DHT22;11585;51.450;-0.240;2022-08-03T02:52:11;22.70;99.90
22838;DHT22;11585;51.450;-0.240;2022-08-03T02:54:40;22.70;99.90
22838;DHT22;11585;51.450;-0.240;2022-08-03T02:57:09;22.70;99.90
22838;DHT22;11585;51.450;-0.240;2022-08-03T02:59:36;22.70;99.90
22838;DHT22;11585;51.450;-0.240;2022-08-03T03:02:02;22.70;99.90
22838;DHT22;11585;51.450;-0.240;2022-08-03T03:04:29;22.70;99.90
22838;DHT22;11585;51.450;-0.240;2022-08-03T03:06:56;22.70;99.90
22838;DHT22;11585;51.450;-0.240;2022-08-03T03:09:22;22.70;99.90
22838;DHT22;11585;51.450;-0.240;2022-08-03T03:11:49;22.70;99.90
22838;DHT22;11585;51.450;-0.240;2022-08-03T03:14:19;22.70;99.90
22838;DHT22;11585;51.450;-0.240;2022-08-03T03:16:45;22.70;99.90
22838;DHT22;11585;51.450;-0.240;2022-08-03T03:19:12;22.60;99.90
22838;DHT22;11585;51.450;-0.240;2022-08-03T03:21:39;22.60;99.90
22838;DHT22;11585;51.450;-0.240;2022-08-03T03:24:08;22.60;99.90
22838;DHT22;11585;51.450;-0.240;2022-08-03T03:26:35;22.60;99.90
22838;DHT22;11585;51.450;-0.240;2022-08-03T03:29:01;22.60;99.90
22838;DHT22;11585;51.450;-0.240;2022-08-03T03:31:27;22.60;99.90
22838;DHT22;11585;51.450;-0.240;2022-08-03T03:33:56;22.60;99.90
22838;DHT22;11585;51.450;-0.240;2022-08-03T03:36:22;22.60;99.90
22838;DHT22;11585;51.450;-0.240;2022-08-03T03:38:48;22.60;99.90
22838;DHT22;11585;51.450;-0.240;2022-08-03T03:41:14;22.60;99.90
22838;DHT22;11585;51.450;-0.240;2022-08-03T03:46:44;22.60;99.90
22838;DHT22;11585;51.450;-0.240;2022-08-03T03:49:10;22.60;99.90
22838;DHT22;11585;51.450;-0.240;2022-08-03T03:51:36;22.60;99.90
22838;DHT22;11585;51.450;-0.240;2022-08-03T03:54:03;22.60;99.90
22838;DHT22;11585;51.450;-0.240;2022-08-03T03:56:32;22.60;99.90
22838;DHT22;11585;51.450;-0.240;2022-08-03T03:59:00;22.60;99.90
22838;DHT22;11585;51.450;-0.240;2022-08-03T04:01:26;22.60;99.90
22838;DHT22;11585;51.450;-0.240;2022-08-03T04:07:13;22.60;99.90
22838;DHT22;11585;51.450;-0.240;2022-08-03T04:09:59;22.60;99.90
22838;DHT22;11585;51.450;-0.240;2022-08-03T04:12:51;22.60;99.90
22838;DHT22;11585;51.450;-0.240;2022-08-03T04:15:22;22.60;99.90
22838;DHT22;11585;51.450;-0.240;2022-08-03T04:17:48;22.60;99.90
22838;DHT22;11585;51.450;-0.240;2022-08-03T04:20:16;22.50;99.90
22838;DHT22;11585;51.450;-0.240;2022-08-03T04:22:45;22.50;99.90
22838;DHT22;11585;51.450;-0.240;2022-08-03T04:25:14;22.60;99.90
22838;DHT22;11585;51.450;-0.240;2022-08-03T04:27:43;22.50;99.90
22838;DHT22;11585;51.450;-0.240;2022-08-03T04:30:09;22.50;99.90
22838;DHT22;11585;51.450;-0.240;2022-08-03T04:32:36;22.50;99.90
22838;DHT22;11585;51.450;-0.240;2022-08-03T04:35:03;22.50;99.90
22838;DHT22;11585;51.450;-0.240;2022-08-03T04:37:58;22.60;99.90
22838;DHT22;11585;51.450;-0.240;2022-08-03T04:40:34;22.60;99.90
22838;DHT22;11585;51.450;-0.240;2022-08-03T04:43:04;22.50;99.90
22838;DHT22;11585;51.450;-0.240;2022-08-03T04:45:30;22.50;99.90
22838;DHT22;11585;51.450;-0.240;2022-08-03T04:47:57;22.50;99.90
22838;DHT22;11585;51.450;-0.240;2022-08-03T04:50:24;22.50;99.90
22838;DHT22;11585;51.450;-0.240;2022-08-03T04:52:55;22.50;99.90
22838;DHT22;11585;51.450;-0.240;2022-08-03T04:55:28;22.50;99.90
22838;DHT22;11585;51.450;-0.240;2022-08-03T04:57:54;22.50;99.90
22838;DHT22;11585;51.450;-0.240;2022-08-03T05:00:20;22.50;99.90
22838;DHT22;11585;51.450;-0.240;2022-08-03T05:02:46;22.50;99.90
22838;DHT22;11585;51.450;-0.240;2022-08-03T05:05:12;22.50;99.90
22838;DHT22;11585;51.450;-0.240;2022-08-03T05:07:38;22.50;99.90
22838;DHT22;11585;51.450;-0.240;2022-08-03T05:10:04;22.50;99.90
22838;DHT22;11585;51.450;-0.240;2022-08-03T05:12:31;22.50;99.90
22838;DHT22;11585;51.450;-0.240;2022-08-03T05:15:01;22.50;99.90
22838;DHT22;11585;51.450;-0.240;2022-08-03T05:17:27;22.50;99.90
22838;DHT22;11585;51.450;-0.240;2022-08-03T05:19:53;22.60;99.90
22838;DHT22;11585;51.450;-0.240;2022-08-03T05:22:20;22.50;99.90
22838;DHT22;11585;51.450;-0.240;2022-08-03T05:24:48;22.40;99.90
22838;DHT22;11585;51.450;-0.240;2022-08-03T05:27:14;22.50;99.90
22838;DHT22;11585;51.450;-0.240;2022-08-03T05:29:49;22.40;99.90
22838;DHT22;11585;51.450;-0.240;2022-08-03T05:32:16;22.40;99.90
22838;DHT22;11585;51.450;-0.240;2022-08-03T05:34:44;22.40;99.90
22838;DHT22;11585;51.450;-0.240;2022-08-03T05:37:10;22.40;99.90
22838;DHT22;11585;51.450;-0.240;2022-08-03T05:39:36;22.40;99.90
22838;DHT22;11585;51.450;-0.240;2022-08-03T05:42:02;22.40;99.90
22838;DHT22;11585;51.450;-0.240;2022-08-03T05:44:29;22.40;99.90
22838;DHT22;11585;51.450;-0.240;2022-08-03T05:46:56;22.40;99.90
22838;DHT22;11585;51.450;-0.240;2022-08-03T05:49:22;22.40;99.90
22838;DHT22;11585;51.450;-0.240;2022-08-03T05:51:47;22.40;99.90
22838;DHT22;11585;51.450;-0.240;2022-08-03T05:54:14;22.40;99.90
22838;DHT22;11585;51.450;-0.240;2022-08-03T05:56:40;22.40;99.90
22838;DHT22;11585;51.450;-0.240;2022-08-03T05:59:06;22.40;99.90
22838;DHT22;11585;51.450;-0.240;2022-08-03T06:01:31;22.50;99.90
22838;DHT22;11585;51.450;-0.240;2022-08-03T06:04:18;22.50;99.90
22838;DHT22;11585;51.450;-0.240;2022-08-03T06:06:44;22.50;99.90
22838;DHT22;11585;51.450;-0.240;2022-08-03T06:09:10;22.50;99.90
22838;DHT22;11585;51.450;-0.240;2022-08-03T06:11:36;22.50;99.90
22838;DHT22;11585;51.450;-0.240;2022-08-03T06:14:02;22.50;99.90
22838;DHT22;11585;51.450;-0.240;2022-08-03T06:16:28;22.50;99.90
22838;DHT22;11585;51.450;-0.240;2022-08-03T06:18:54;22.50;99.90
22838;DHT22;11585;51.450;-0.240;2022-08-03T06:21:19;22.50;99.90
22838;DHT22;11585;51.450;-0.240;2022-08-03T06:23:45;22.50;99.90
22838;DHT22;11585;51.450;-0.240;2022-08-03T06:26:12;22.50;99.90
22838;DHT22;11585;51.450;-0.240;2022-08-03T06:28:38;22.50;99.90
22838;DHT22;11585;51.450;-0.240;2022-08-03T06:31:04;22.50;99.90
22838;DHT22;11585;51.450;-0.240;2022-08-03T06:33:32;22.50;99.90
22838;DHT22;11585;51.450;-0.240;2022-08-03T06:35:58;22.60;99.90
22838;DHT22;11585;51.450;-0.240;2022-08-03T06:38:24;22.50;99.90
22838;DHT22;11585;51.450;-0.240;2022-08-03T06:40:49;23.10;99.90
22838;DHT22;11585;51.450;-0.240;2022-08-03T06:43:15;22.60;99.90
22838;DHT22;11585;51.450;-0.240;2022-08-03T06:45:43;22.60;99.90
22838;DHT22;11585;51.450;-0.240;2022-08-03T06:48:11;22.60;99.90
22838;DHT22;11585;51.450;-0.240;2022-08-03T06:50:39;22.60;99.90
22838;DHT22;11585;51.450;-0.240;2022-08-03T06:53:11;22.60;99.90
22838;DHT22;11585;51.450;-0.240;2022-08-03T06:55:36;22.60;99.90
22838;DHT22;11585;51.450;-0.240;2022-08-03T06:58:02;22.60;99.90
22838;DHT22;11585;51.450;-0.240;2022-08-03T07:00:28;22.60;99.90
22838;DHT22;11585;51.450;-0.240;2022-08-03T07:02:56;22.60;99.90
22838;DHT22;11585;51.450;-0.240;2022-08-03T07:05:22;22.70;99.90
22838;DHT22;11585;51.450;-0.240;2022-08-03T07:07:47;22.70;99.90
22838;DHT22;11585;51.450;-0.240;2022-08-03T07:10:14;22.70;99.90
22838;DHT22;11585;51.450;-0.240;2022-08-03T07:12:39;22.70;99.90
22838;DHT22;11585;51.450;-0.240;2022-08-03T07:15:06;22.70;99.90
22838;DHT22;11585;51.450;-0.240;2022-08-03T07:17:34;22.70;99.90
22838;DHT22;11585;51.450;-0.240;2022-08-03T07:20:03;22.70;99.90
22838;DHT22;11585;51.450;-0.240;2022-08-03T07:22:29;22.70;99.90
22838;DHT22;11585;51.450;-0.240;2022-08-03T07:25:14;22.70;99.90
22838;DHT22;11585;51.450;-0.240;2022-08-03T07:27:44;22.70;99.90
22838;DHT22;11585;51.450;-0.240;2022-08-03T07:30:10;22.70;99.90
22838;DHT22;11585;51.450;-0.240;2022-08-03T07:32:36;22.70;99.90
22838;DHT22;11585;51.450;-0.240;2022-08-03T07:35:03;22.80;99.90
22838;DHT22;11585;51.450;-0.240;2022-08-03T07:37:29;22.80;99.90
22838;DHT22;11585;51.450;-0.240;2022-08-03T07:39:55;22.80;99.90
22838;DHT22;11585;51.450;-0.240;2022-08-03T07:42:21;22.80;99.90
22838;DHT22;11585;51.450;-0.240;2022-08-03T07:44:48;22.80;99.90
22838;DHT22;11585;51.450;-0.240;2022-08-03T07:47:19;22.90;99.90
22838;DHT22;11585;51.450;-0.240;2022-08-03T07:49:44;22.90;99.90
22838;DHT22;11585;51.450;-0.240;2022-08-03T07:52:10;22.80;99.90
22838;DHT22;11585;51.450;-0.240;2022-08-03T07:54:54;22.90;99.90
22838;DHT22;11585;51.450;-0.240;2022-08-03T07:57:20;22.90;99.90
22838;DHT22;11585;51.450;-0.240;2022-08-03T07:59:46;22.90;99.90
22838;DHT22;11585;51.450;-0.240;2022-08-03T08:02:12;22.90;99.90
22838;DHT22;11585;51.450;-0.240;2022-08-03T08:04:39;22.90;99.90
22838;DHT22;11585;51.450;-0.240;2022-08-03T08:07:04;22.90;99.90
22838;DHT22;11585;51.450;-0.240;2022-08-03T08:09:30;23.00;99.90
22838;DHT22;11585;51.450;-0.240;2022-08-03T08:11:56;23.00;99.90
22838;DHT22;11585;51.450;-0.240;2022-08-03T08:14:23;23.00;99.90
22838;DHT22;11585;51.450;-0.240;2022-08-03T08:16:48;23.00;99.90
22838;DHT22;11585;51.450;-0.240;2022-08-03T08:19:14;23.10;99.90
22838;DHT22;11585;51.450;-0.240;2022-08-03T08:21:41;23.00;99.90
22838;DHT22;11585;51.450;-0.240;2022-08-03T08:24:09;23.10;99.90
22838;DHT22;11585;51.450;-0.240;2022-08-03T08:26:35;23.10;99.90
22838;DHT22;11585;51.450;-0.240;2022-08-03T08:29:00;23.10;99.90
22838;DHT22;11585;51.450;-0.240;2022-08-03T08:31:26;23.10;99.90
22838;DHT22;11585;51.450;-0.240;2022-08-03T08:34:12;23.10;99.90
22838;DHT22;11585;51.450;-0.240;2022-08-03T08:36:37;23.20;99.90
22838;DHT22;11585;51.450;-0.240;2022-08-03T08:39:03;23.10;99.90
22838;DHT22;11585;51.450;-0.240;2022-08-03T08:41:29;23.20;99.90
22838;DHT22;11585;51.450;-0.240;2022-08-03T08:46:46;23.20;99.90
22838;DHT22;11585;51.450;-0.240;2022-08-03T08:49:15;23.20;99.90
22838;DHT22;11585;51.450;-0.240;2022-08-03T08:51:43;23.30;99.90
22838;DHT22;11585;51.450;-0.240;2022-08-03T08:54:14;23.20;99.90
22838;DHT22;11585;51.450;-0.240;2022-08-03T08:56:40;23.30;99.90
22838;DHT22;11585;51.450;-0.240;2022-08-03T08:59:06;23.30;99.90
22838;DHT22;11585;51.450;-0.240;2022-08-03T09:01:32;23.30;99.90
22838;DHT22;11585;51.450;-0.240;2022-08-03T09:03:58;23.30;99.90
22838;DHT22;11585;51.450;-0.240;2022-08-03T09:06:24;23.30;99.90
22838;DHT22;11585;51.450;-0.240;2022-08-03T09:08:50;23.40;99.90
22838;DHT22;11585;51.450;-0.240;2022-08-03T09:11:20;23.40;99.90
22838;DHT22;11585;51.450;-0.240;2022-08-03T09:13:46;23.40;99.90
22838;DHT22;11585;51.450;-0.240;2022-08-03T09:16:14;23.40;99.90
22838;DHT22;11585;51.450;-0.240;2022-08-03T09:18:43;23.40;99.90
22838;DHT22;11585;51.450;-0.240;2022-08-03T09:23:52;23.50;99.90
22838;DHT22;11585;51.450;-0.240;2022-08-03T09:26:30;23.50;99.90
22838;DHT22;11585;51.450;-0.240;2022-08-03T09:28:58;23.50;99.90
22838;DHT22;11585;51.450;-0.240;2022-08-03T09:31:38;23.50;99.90
22838;DHT22;11585;51.450;-0.240;2022-08-03T09:34:07;23.60;99.90
22838;DHT22;11585;51.450;-0.240;2022-08-03T09:36:33;23.60;99.90
22838;DHT22;11585;51.450;-0.240;2022-08-03T09:39:01;23.50;99.90
22838;DHT22;11585;51.450;-0.240;2022-08-03T09:41:30;23.60;99.90
22838;DHT22;11585;51.450;-0.240;2022-08-03T09:43:56;23.60;99.90
22838;DHT22;11585;51.450;-0.240;2022-08-03T09:46:21;23.60;99.90
22838;DHT22;11585;51.450;-0.240;2022-08-03T09:48:47;23.60;99.90
22838;DHT22;11585;51.450;-0.240;2022-08-03T09:51:13;23.70;99.90
22838;DHT22;11585;51.450;-0.240;2022-08-03T09:53:45;23.70;99.90
22838;DHT22;11585;51.450;-0.240;2022-08-03T09:56:11;23.70;99.90
22838;DHT22;11585;51.450;-0.240;2022-08-03T09:58:45;23.80;99.90
22838;DHT22;11585;51.450;-0.240;2022-08-03T10:01:12;23.80;99.90
22838;DHT22;11585;51.450;-0.240;2022-08-03T10:03:39;23.80;99.90
22838;DHT22;11585;51.450;-0.240;2022-08-03T10:06:31;23.90;99.90
22838;DHT22;11585;51.450;-0.240;2022-08-03T10:09:13;23.90;99.90
22838;DHT22;11585;51.450;-0.240;2022-08-03T10:11:40;23.90;99.90
22838;DHT22;11585;51.450;-0.240;2022-08-03T10:14:09;24.00;99.90
22838;DHT22;11585;51.450;-0.240;2022-08-03T10:16:38;24.00;99.90
22838;DHT22;11585;51.450;-0.240;2022-08-03T10:19:07;24.00;99.90
22838;DHT22;11585;51.450;-0.240;2022-08-03T10:21:36;24.10;99.90
22838;DHT22;11585;51.450;-0.240;2022-08-03T10:24:04;24.10;99.90
22838;DHT22;11585;51.450;-0.240;2022-08-03T10:26:33;24.10;99.90
22838;DHT22;11585;51.450;-0.240;2022-08-03T10:29:02;24.20;99.90
22838;DHT22;11585;51.450;-0.240;2022-08-03T10:31:34;24.20;99.90
22838;DHT22;11585;51.450;-0.240;2022-08-03T10:34:04;24.20;99.90
22838;DHT22;11585;51.450;-0.240;2022-08-03T10:36:32;24.30;99.90
22838;DHT22;11585;51.450;-0.240;2022-08-03T10:39:00;24.30;99.90
22838;DHT22;11585;51.450;-0.240;2022-08-03T10:41:31;24.40;99.90
22838;DHT22;11585;51.450;-0.240;2022-08-03T10:46:47;24.60;99.90
22838;DHT22;11585;51.450;-0.240;2022-08-03T10:49:16;24.40;99.90
22838;DHT22;11585;51.450;-0.240;2022-08-03T10:51:47;24.50;99.90
22838;DHT22;11585;51.450;-0.240;2022-08-03T10:54:41;24.50;99.90
22838;DHT22;11585;51.450;-0.240;2022-08-03T10:57:48;24.60;99.90
22838;DHT22;11585;51.450;-0.240;2022-08-03T11:00:19;24.60;99.90
22838;DHT22;11585;51.450;-0.240;2022-08-03T11:03:05;24.60;99.90
22838;DHT22;11585;51.450;-0.240;2022-08-03T11:05:41;24.60;99.90
22838;DHT22;11585;51.450;-0.240;2022-08-03T11:08:23;24.70;99.90
22838;DHT22;11585;51.450;-0.240;2022-08-03T11:10:50;24.70;99.90
22838;DHT22;11585;51.450;-0.240;2022-08-03T11:13:22;24.70;99.90
22838;DHT22;11585;51.450;-0.240;2022-08-03T11:15:50;24.80;99.90
22838;DHT22;11585;51.450;-0.240;2022-08-03T11:18:16;24.80;99.90
22838;DHT22;11585;51.450;-0.240;2022-08-03T11:23:14;24.90;99.90
22838;DHT22;11585;51.450;-0.240;2022-08-03T11:26:18;24.90;99.90
22838;DHT22;11585;51.450;-0.240;2022-08-03T11:28:47;24.90;99.90
22838;DHT22;11585;51.450;-0.240;2022-08-03T11:34:12;25.00;99.90
22838;DHT22;11585;51.450;-0.240;2022-08-03T11:39:46;25.00;99.90
22838;DHT22;11585;51.450;-0.240;2022-08-03T11:42:36;25.00;99.90
22838;DHT22;11585;51.450;-0.240;2022-08-03T11:45:06;25.10;99.90
22838;DHT22;11585;51.450;-0.240;2022-08-03T11:47:36;25.40;99.90
22838;DHT22;11585;51.450;-0.240;2022-08-03T11:50:01;25.10;99.90
22838;DHT22;11585;51.450;-0.240;2022-08-03T11:52:34;25.10;99.90
22838;DHT22;11585;51.450;-0.240;2022-08-03T11:55:00;25.10;99.90
22838;DHT22;11585;51.450;-0.240;2022-08-03T11:57:31;25.10;99.90
22838;DHT22;11585;51.450;-0.240;2022-08-03T11:59:57;25.30;99.90
22838;DHT22;11585;51.450;-0.240;2022-08-03T12:02:23;25.20;99.90
22838;DHT22;11585;51.450;-0.240;2022-08-03T12:04:56;25.20;99.90
22838;DHT22;11585;51.450;-0.240;2022-08-03T12:07:23;25.20;99.90
22838;DHT22;11585;51.450;-0.240;2022-08-03T12:10:08;25.20;99.90
22838;DHT22;11585;51.450;-0.240;2022-08-03T12:12:36;25.20;99.90
22838;DHT22;11585;51.450;-0.240;2022-08-03T12:15:03;25.20;99.90
22838;DHT22;11585;51.450;-0.240;2022-08-03T12:17:37;25.30;99.90
22838;DHT22;11585;51.450;-0.240;2022-08-03T12:20:08;25.30;99.90
22838;DHT22;11585;51.450;-0.240;2022-08-03T12:22:39;25.30;99.90
22838;DHT22;11585;51.450;-0.240;2022-08-03T12:25:06;25.30;99.90
22838;DHT22;11585;51.450;-0.240;2022-08-03T12:27:32;25.40;99.90
22838;DHT22;11585;51.450;-0.240;2022-08-03T12:29:59;25.40;99.90
22838;DHT22;11585;51.450;-0.240;2022-08-03T12:32:29;25.40;99.90
22838;DHT22;11585;51.450;-0.240;2022-08-03T12:34:58;25.50;99.90
22838;DHT22;11585;51.450;-0.240;2022-08-03T12:37:25;25.50;99.90
22838;DHT22;11585;51.450;-0.240;2022-08-03T12:39:56;25.60;99.90
22838;DHT22;11585;51.450;-0.240;2022-08-03T12:42:32;25.50;99.90
22838;DHT22;11585;51.450;-0.240;2022-08-03T12:45:17;25.60;99.90
22838;DHT22;11585;51.450;-0.240;2022-08-03T12:47:51;25.60;99.90
22838;DHT22;11585;51.450;-0.240;2022-08-03T12:52:56;25.70;99.90
22838;DHT22;11585;51.450;-0.240;2022-08-03T12:55:24;25.70;99.90
22838;DHT22;11585;51.450;-0.240;2022-08-03T12:57:51;25.70;99.90
22838;DHT22;11585;51.450;-0.240;2022-08-03T13:00:18;25.80;99.90
22838;DHT22;11585;51.450;-0.240;2022-08-03T13:02:44;25.80;99.90
22838;DHT22;11585;51.450;-0.240;2022-08-03T13:05:14;25.80;99.90
22838;DHT22;11585;51.450;-0.240;2022-08-03T13:07:43;25.80;99.90
22838;DHT22;11585;51.450;-0.240;2022-08-03T13:10:11;25.80;99.90
22838;DHT22;11585;51.450;-0.240;2022-08-03T13:12:51;25.80;99.90
22838;DHT22;11585;51.450;-0.240;2022-08-03T13:15:17;25.80;99.90
22838;DHT22;11585;51.450;-0.240;2022-08-03T13:17:43;25.90;99.90
22838;DHT22;11585;51.450;-0.240;2022-08-03T13:20:09;25.90;99.90
22838;DHT22;11585;51.450;-0.240;2022-08-03T13:22:35;26.00;99.90
22838;DHT22;11585;51.450;-0.240;2022-08-03T13:25:02;26.00;99.90
22838;DHT22;11585;51.450;-0.240;2022-08-03T13:27:29;26.00;99.90
22838;DHT22;11585;51.450;-0.240;2022-08-03T13:29:55;26.00;99.90
22838;DHT22;11585;51.450;-0.240;2022-08-03T13:32:22;26.00;99.90
22838;DHT22;11585;51.450;-0.240;2022-08-03T13:34:48;26.10;99.90
22838;DHT22;11585;51.450;-0.240;2022-08-03T13:37:14;26.10;99.90
22838;DHT22;11585;51.450;-0.240;2022-08-03T13:39:41;26.10;99.90
22838;DHT22;11585;51.450;-0.240;2022-08-03T13:42:06;26.10;99.90
22838;DHT22;11585;51.450;-0.240;2022-08-03T13:44:33;26.10;99.90
22838;DHT22;11585;51.450;-0.240;2022-08-03T13:47:01;26.20;99.90
22838;DHT22;11585;51.450;-0.240;2022-08-03T13:49:27;26.20;99.90
22838;DHT22;11585;51.450;-0.240;2022-08-03T13:51:53;26.20;99.90
22838;DHT22;11585;51.450;-0.240;2022-08-03T13:54:19;26.20;99.90
22838;DHT22;11585;51.450;-0.240;2022-08-03T13:56:45;26.30;99.90
22838;DHT22;11585;51.450;-0.240;2022-08-03T13:59:17;26.30;99.90
22838;DHT22;11585;51.450;-0.240;2022-08-03T14:01:44;26.40;99.90
22838;DHT22;11585;51.450;-0.240;2022-08-03T14:04:31;26.40;99.90
22838;DHT22;11585;51.450;-0.240;2022-08-03T14:06:56;26.50;99.90
22838;DHT22;11585;51.450;-0.240;2022-08-03T14:09:22;26.50;99.90
22838;DHT22;11585;51.450;-0.240;2022-08-03T14:11:48;26.50;99.90
22838;DHT22;11585;51.450;-0.240;2022-08-03T14:14:15;26.50;99.90
22838;DHT22;11585;51.450;-0.240;2022-08-03T14:16:40;26.60;99.90
22838;DHT22;11585;51.450;-0.240;2022-08-03T14:19:07;26.60;99.90
22838;DHT22;11585;51.450;-0.240;2022-08-03T14:21:33;26.70;99.90
22838;DHT22;11585;51.450;-0.240;2022-08-03T14:24:19;26.70;99.90
22838;DHT22;11585;51.450;-0.240;2022-08-03T14:26:45;26.80;99.90
22838;DHT22;11585;51.450;-0.240;2022-08-03T14:29:11;26.80;99.90
22838;DHT22;11585;51.450;-0.240;2022-08-03T14:31:36;26.80;99.90
22838;DHT22;11585;51.450;-0.240;2022-08-03T14:34:03;26.80;99.90
22838;DHT22;11585;51.450;-0.240;2022-08-03T14:36:28;26.90;99.90
22838;DHT22;11585;51.450;-0.240;2022-08-03T14:38:54;26.90;99.90
22838;DHT22;11585;51.450;-0.240;2022-08-03T14:41:20;26.90;99.90
22838;DHT22;11585;51.450;-0.240;2022-08-03T14:43:47;27.00;99.90
22838;DHT22;11585;51.450;-0.240;2022-08-03T14:46:16;27.00;99.90
22838;DHT22;11585;51.450;-0.240;2022-08-03T14:48:41;27.00;99.90
22838;DHT22;11585;51.450;-0.240;2022-08-03T14:51:07;27.00;99.90
22838;DHT22;11585;51.450;-0.240;2022-08-03T14:53:33;27.00;99.90
22838;DHT22;11585;51.450;-0.240;2022-08-03T14:55:59;27.00;99.90
22838;DHT22;11585;51.450;-0.240;2022-08-03T14:58:25;27.00;99.90
22838;DHT22;11585;51.450;-0.240;2022-08-03T15:00:52;27.10;99.90
22838;DHT22;11585;51.450;-0.240;2022-08-03T15:03:19;27.10;99.90
22838;DHT22;11585;51.450;-0.240;2022-08-03T15:05:48;27.10;99.90
22838;DHT22;11585;51.450;-0.240;2022-08-03T15:08:14;27.10;99.90
22838;DHT22;11585;51.450;-0.240;2022-08-03T15:10:40;27.20;99.90
22838;DHT22;11585;51.450;-0.240;2022-08-03T15:13:06;27.10;99.90
22838;DHT22;11585;51.450;-0.240;2022-08-03T15:15:32;27.20;99.90
22838;DHT22;11585;51.450;-0.240;2022-08-03T15:17:58;27.20;99.90
22838;DHT22;11585;51.450;-0.240;2022-08-03T15:20:23;27.20;99.90
22838;DHT22;11585;51.450;-0.240;2022-08-03T15:22:49;27.20;99.90
22838;DHT22;11585;51.450;-0.240;2022-08-03T15:25:15;27.20;99.90
22838;DHT22;11585;51.450;-0.240;2022-08-03T15:27:40;27.20;99.90
22838;DHT22;11585;51.450;-0.240;2022-08-03T15:30:06;27.20;99.90
22838;DHT22;11585;51.450;-0.240;2022-08-03T15:32:33;27.30;99.90
22838;DHT22;11585;51.450;-0.240;2022-08-03T15:35:03;27.30;99.90
22838;DHT22;11585;51.450;-0.240;2022-08-03T15:37:31;27.30;99.90
22838;DHT22;11585;51.450;-0.240;2022-08-03T15:39:57;27.30;99.90
22838;DHT22;11585;51.450;-0.240;2022-08-03T15:42:22;27.30;99.90
22838;DHT22;11585;51.450;-0.240;2022-08-03T15:44:48;27.30;99.90
22838;DHT22;11585;51.450;-0.240;2022-08-03T15:47:14;27.30;99.90
22838;DHT22;11585;51.450;-0.240;2022-08-03T15:49:41;27.30;99.90
22838;DHT22;11585;51.450;-0.240;2022-08-03T15:52:06;27.30;99.90
22838;DHT22;11585;51.450;-0.240;2022-08-03T15:54:32;27.30;99.90
22838;DHT22;11585;51.450;-0.240;2022-08-03T15:56:58;27.30;99.90
22838;DHT22;11585;51.450;-0.240;2022-08-03T15:59:23;27.30;99.90
22838;DHT22;11585;51.450;-0.240;2022-08-03T16:01:49;27.30;99.90
22838;DHT22;11585;51.450;-0.240;2022-08-03T16:04:18;27.30;99.90
22838;DHT22;11585;51.450;-0.240;2022-08-03T16:06:44;27.30;99.90
22838;DHT22;11585;51.450;-0.240;2022-08-03T16:09:09;27.30;99.90
22838;DHT22;11585;51.450;-0.240;2022-08-03T16:11:36;27.30;99.90
22838;DHT22;11585;51.450;-0.240;2022-08-03T16:14:03;27.30;99.90
22838;DHT22;11585;51.450;-0.240;2022-08-03T16:16:28;27.30;99.90